createdAt,value
2023-04-10T00:00:30.931Z,69.8215
2023-04-10T00:01:34.152Z,69.8378
2023-04-10T00:02:37.533Z,69.9238
2023-04-10T00:03:41.140Z,70.0120
2023-04-10T00:04:44.477Z,70.1292
2023-04-10T00:05:47.675Z,70.1178
2023-04-10T00:06:47.885Z,70.2323
2023-04-10T00:07:51.102Z,70.4818
2023-04-10T00:08:54.471Z,70.5521
2023-04-10T00:09:57.681Z,70.5820
2023-04-10T00:11:00.897Z,70.5542
2023-04-10T00:12:04.107Z,70.6928
2023-04-10T00:13:07.379Z,70.7821
2023-04-10T00:14:10.578Z,70.8961
2023-04-10T00:15:13.800Z,70.8879
2023-04-10T00:16:17.056Z,70.8361
2023-04-10T00:17:20.382Z,70.8976
2023-04-10T00:18:23.593Z,71.0691
2023-04-10T00:19:26.825Z,71.2548
2023-04-10T00:20:30.019Z,71.3459
2023-04-10T00:21:33.239Z,71.2839
2023-04-10T00:22:36.441Z,71.3837
2023-04-10T00:23:39.691Z,71.5073
2023-04-10T00:24:42.919Z,71.5292
2023-04-10T00:25:46.140Z,71.7769
2023-04-10T00:26:49.362Z,71.8223
2023-04-10T00:27:52.607Z,71.9353
2023-04-10T00:28:55.815Z,72.1681
2023-04-10T00:29:59.026Z,72.2472
2023-04-10T00:31:02.266Z,72.3106
2023-04-10T00:32:05.499Z,72.3677
2023-04-10T00:33:08.708Z,72.4457
2023-04-10T00:34:12.101Z,72.4309
2023-04-10T00:35:15.318Z,72.4228
2023-04-10T00:36:18.540Z,72.3157
2023-04-10T00:37:21.771Z,72.4409
2023-04-10T00:38:24.993Z,72.5884
2023-04-10T00:39:28.202Z,72.8358
2023-04-10T00:40:28.412Z,72.9008
2023-04-10T00:41:28.392Z,73.0032
2023-04-10T00:42:31.663Z,72.9361
2023-04-10T00:43:34.882Z,72.9524
2023-04-10T00:44:38.163Z,73.1224
2023-04-10T00:45:41.497Z,73.1362
2023-04-10T00:46:44.738Z,73.2266
2023-04-10T00:47:48.031Z,73.3677
2023-04-10T00:48:51.326Z,73.4762
2023-04-10T00:49:54.604Z,73.4484
2023-04-10T00:50:57.855Z,73.4814
2023-04-10T00:51:58.527Z,73.6555
2023-04-10T00:52:58.473Z,73.7450
2023-04-10T00:54:01.784Z,73.7286
2023-04-10T00:55:05.066Z,73.7244
2023-04-10T00:56:08.324Z,73.7385
2023-04-10T00:57:11.758Z,73.7769
2023-04-10T00:58:14.972Z,73.8675
2023-04-10T00:59:18.259Z,73.8979
2023-04-10T01:00:21.492Z,73.8724
2023-04-10T01:01:21.561Z,73.8983
2023-04-10T01:02:24.919Z,73.8309
2023-04-10T01:03:25.098Z,73.9864
2023-04-10T01:04:25.095Z,73.9820
2023-04-10T01:05:28.423Z,74.0670
2023-04-10T01:06:31.706Z,74.1904
2023-04-10T01:07:34.958Z,74.2309
2023-04-10T01:08:38.240Z,74.2600
2023-04-10T01:09:38.246Z,74.3827
2023-04-10T01:10:41.527Z,74.5677
2023-04-10T01:11:41.517Z,74.7629
2023-04-10T01:12:44.793Z,74.8959
2023-04-10T01:13:44.888Z,74.9574
2023-04-10T01:14:48.139Z,75.0894
2023-04-10T01:15:51.425Z,75.0564
2023-04-10T01:16:54.751Z,75.0927
2023-04-10T01:17:58.003Z,75.2413
2023-04-10T01:19:01.262Z,75.3947
2023-04-10T01:20:04.514Z,75.2857
2023-04-10T01:21:07.770Z,75.4053
2023-04-10T01:22:11.072Z,75.5405
2023-04-10T01:23:14.304Z,75.4922
2023-04-10T01:24:17.599Z,75.4949
2023-04-10T01:25:20.826Z,75.6413
2023-04-10T01:26:24.104Z,75.6468
2023-04-10T01:27:27.372Z,75.7111
2023-04-10T01:28:30.637Z,75.6695
2023-04-10T01:29:33.903Z,75.6606
2023-04-10T01:30:37.250Z,75.6869
2023-04-10T01:31:37.310Z,75.6576
2023-04-10T01:32:40.612Z,75.5538
2023-04-10T01:33:43.878Z,75.6308
2023-04-10T01:34:47.137Z,75.8795
2023-04-10T01:35:50.437Z,75.8746
2023-04-10T01:36:50.563Z,75.9239
2023-04-10T01:37:53.842Z,75.9952
2023-04-10T01:38:57.104Z,76.0766
2023-04-10T01:40:00.379Z,76.0686
2023-04-10T01:41:03.668Z,76.4086
2023-04-10T01:42:06.940Z,76.5170
2023-04-10T01:43:10.232Z,76.6239
2023-04-10T01:44:13.510Z,76.5530
2023-04-10T01:45:16.750Z,76.6329
2023-04-10T01:46:20.010Z,76.7871
2023-04-10T01:47:23.282Z,76.9483
2023-04-10T01:48:26.520Z,76.9986
2023-04-10T01:49:29.788Z,77.2493
2023-04-10T01:50:33.048Z,77.2388
2023-04-10T01:51:36.329Z,77.2207
2023-04-10T01:52:39.625Z,77.3063
2023-04-10T01:53:42.894Z,77.3439
2023-04-10T01:54:46.114Z,77.4038
2023-04-10T01:55:49.396Z,77.3304
2023-04-10T01:56:52.641Z,77.5321
2023-04-10T01:57:55.945Z,77.5397
2023-04-10T01:58:59.401Z,77.3289
2023-04-10T02:00:02.648Z,77.3365
2023-04-10T02:01:05.911Z,77.5157
2023-04-10T02:02:06.045Z,77.5323
2023-04-10T02:03:09.575Z,77.4832
2023-04-10T02:04:09.738Z,77.6217
2023-04-10T02:05:21.625Z,77.5557
2023-04-10T02:06:14.660Z,77.5405
2023-04-10T02:07:17.904Z,77.7083
2023-04-10T02:08:21.225Z,77.6019
2023-04-10T02:09:24.449Z,77.7284
2023-04-10T02:10:27.779Z,77.5625
2023-04-10T02:11:31.044Z,77.7670
2023-04-10T02:12:34.269Z,77.9034
2023-04-10T02:13:37.685Z,77.9399
2023-04-10T02:14:40.933Z,78.0749
2023-04-10T02:15:44.225Z,78.2072
2023-04-10T02:16:44.254Z,78.2588
2023-04-10T02:17:47.545Z,78.1509
2023-04-10T02:18:50.787Z,78.1238
2023-04-10T02:19:54.068Z,78.1350
2023-04-10T02:20:57.300Z,78.0471
2023-04-10T02:22:00.555Z,77.9899
2023-04-10T02:23:04.069Z,77.9440
2023-04-10T02:24:03.868Z,77.8731
2023-04-10T02:25:07.095Z,77.9029
2023-04-10T02:26:10.837Z,77.8881
2023-04-10T02:27:10.553Z,78.1001
2023-04-10T02:28:13.798Z,78.0546
2023-04-10T02:29:17.036Z,77.9917
2023-04-10T02:30:20.274Z,78.1641
2023-04-10T02:31:23.545Z,78.1753
2023-04-10T02:32:26.904Z,78.2007
2023-04-10T02:33:30.140Z,78.3347
2023-04-10T02:34:33.431Z,78.2889
2023-04-10T02:35:37.179Z,78.2110
2023-04-10T02:36:37.205Z,78.1821
2023-04-10T02:37:37.161Z,78.3124
2023-04-10T02:38:37.070Z,78.2621
2023-04-10T02:39:40.366Z,78.2870
2023-04-10T02:40:43.600Z,78.2647
2023-04-10T02:41:46.882Z,78.3980
2023-04-10T02:42:50.118Z,78.4489
2023-04-10T02:43:53.617Z,78.5334
2023-04-10T02:44:53.596Z,78.6416
2023-04-10T02:45:56.872Z,78.5248
2023-04-10T02:47:00.923Z,78.5835
2023-04-10T02:48:00.703Z,78.6633
2023-04-10T02:49:03.943Z,78.7909
2023-04-10T02:50:07.209Z,78.8567
2023-04-10T02:51:10.483Z,78.9475
2023-04-10T02:52:13.711Z,78.8233
2023-04-10T02:53:16.946Z,78.8301
2023-04-10T02:54:17.029Z,78.7766
2023-04-10T02:55:20.300Z,78.7810
2023-04-10T02:56:23.526Z,78.8588
2023-04-10T02:57:26.801Z,78.9386
2023-04-10T02:58:30.050Z,78.9566
2023-04-10T02:59:33.288Z,79.0053
2023-04-10T03:00:36.522Z,78.9798
2023-04-10T03:01:40.075Z,78.9570
2023-04-10T03:02:43.438Z,78.9276
2023-04-10T03:03:43.415Z,78.9966
2023-04-10T03:04:46.758Z,79.2093
2023-04-10T03:05:50.012Z,79.2661
2023-04-10T03:06:53.265Z,79.4920
2023-04-10T03:07:56.497Z,79.3388
2023-04-10T03:08:59.790Z,79.2407
2023-04-10T03:10:03.452Z,79.3455
2023-04-10T03:11:03.182Z,79.3297
2023-04-10T03:12:06.428Z,79.3359
2023-04-10T03:13:09.694Z,79.4835
2023-04-10T03:14:13.060Z,79.6409
2023-04-10T03:15:16.731Z,79.5471
2023-04-10T03:16:16.513Z,79.3637
2023-04-10T03:17:19.742Z,79.3334
2023-04-10T03:18:23.000Z,79.3054
2023-04-10T03:19:26.238Z,79.3005
2023-04-10T03:20:29.997Z,79.3376
2023-04-10T03:21:30.264Z,79.3746
2023-04-10T03:22:33.513Z,79.4765
2023-04-10T03:23:37.133Z,79.5442
2023-04-10T03:24:36.941Z,79.3301
2023-04-10T03:25:40.196Z,79.1625
2023-04-10T03:26:40.388Z,79.2741
2023-04-10T03:27:43.656Z,79.3322
2023-04-10T03:28:46.945Z,79.3840
2023-04-10T03:29:50.200Z,79.4326
2023-04-10T03:30:53.454Z,79.4869
2023-04-10T03:31:56.779Z,79.5271
2023-04-10T03:32:56.690Z,79.5339
2023-04-10T03:34:00.210Z,79.6052
2023-04-10T03:35:03.482Z,79.5132
2023-04-10T03:36:06.745Z,79.6267
2023-04-10T03:37:10.046Z,79.7279
2023-04-10T03:38:13.369Z,79.7719
2023-04-10T03:39:13.433Z,79.8140
2023-04-10T03:40:16.669Z,79.9797
2023-04-10T03:41:19.959Z,80.1439
2023-04-10T03:42:23.241Z,79.9892
2023-04-10T03:43:26.505Z,80.2003
2023-04-10T03:44:29.757Z,80.4102
2023-04-10T03:45:33.056Z,80.5393
2023-04-10T03:46:33.072Z,80.4159
2023-04-10T03:47:36.331Z,80.3321
2023-04-10T03:48:39.574Z,80.3270
2023-04-10T03:49:42.819Z,80.3800
2023-04-10T03:50:46.061Z,80.5642
2023-04-10T03:51:49.327Z,80.5634
2023-04-10T03:52:52.588Z,80.5333
2023-04-10T03:53:56.121Z,80.6277
2023-04-10T03:54:56.065Z,80.6230
2023-04-10T03:55:59.460Z,80.6854
2023-04-10T03:57:03.270Z,80.6140
2023-04-10T03:58:03.029Z,80.5069
2023-04-10T03:59:06.302Z,80.5351
2023-04-10T04:00:09.514Z,80.6284
2023-04-10T04:01:12.763Z,80.5834
2023-04-10T04:02:16.289Z,80.5551
2023-04-10T04:03:19.832Z,80.6221
2023-04-10T04:04:20.174Z,80.5620
2023-04-10T04:05:20.070Z,80.7017
2023-04-10T04:06:23.298Z,80.7967
2023-04-10T04:07:26.574Z,80.8099
2023-04-10T04:08:29.922Z,80.7422
2023-04-10T04:09:33.224Z,80.7165
2023-04-10T04:10:36.443Z,80.6118
2023-04-10T04:11:39.688Z,80.5691
2023-04-10T04:12:42.909Z,80.5764
2023-04-10T04:13:46.169Z,80.6975
2023-04-10T04:14:49.611Z,80.7930
2023-04-10T04:15:52.971Z,80.6923
2023-04-10T04:16:56.262Z,80.7028
2023-04-10T04:17:59.525Z,80.6874
2023-04-10T04:19:02.826Z,80.6486
2023-04-10T04:20:06.107Z,80.7172
2023-04-10T04:21:09.311Z,80.6362
2023-04-10T04:22:12.950Z,80.8588
2023-04-10T04:23:16.167Z,80.9893
2023-04-10T04:24:19.430Z,81.1742
2023-04-10T04:25:22.649Z,81.2242
2023-04-10T04:26:25.921Z,81.0546
2023-04-10T04:27:29.172Z,81.3609
2023-04-10T04:28:32.413Z,81.8132
2023-04-10T04:29:35.922Z,81.8194
2023-04-10T04:30:36.300Z,81.9856
2023-04-10T04:31:36.123Z,82.0711
2023-04-10T04:32:39.400Z,82.4128
2023-04-10T04:33:43.100Z,82.4054
2023-04-10T04:34:42.887Z,82.6892
2023-04-10T04:35:46.200Z,83.0508
2023-04-10T04:36:49.429Z,83.3727
2023-04-10T04:37:52.732Z,83.7605
2023-04-10T04:38:55.959Z,83.9499
2023-04-10T04:39:59.226Z,84.1135
2023-04-10T04:41:02.467Z,84.7935
2023-04-10T04:42:03.761Z,84.8760
2023-04-10T04:43:07.011Z,84.4521
2023-04-10T04:44:10.680Z,83.2683
2023-04-10T04:45:10.542Z,82.3564
2023-04-10T04:46:13.841Z,81.9596
2023-04-10T04:47:17.125Z,81.6872
2023-04-10T04:48:20.383Z,81.5708
2023-04-10T04:49:24.054Z,81.3497
2023-04-10T04:50:24.870Z,81.0888
2023-04-10T04:51:24.689Z,80.9943
2023-04-10T04:52:27.949Z,80.9847
2023-04-10T04:53:31.188Z,81.1853
2023-04-10T04:54:34.432Z,81.3191
2023-04-10T04:55:37.787Z,81.5105
2023-04-10T04:56:40.994Z,81.6599
2023-04-10T04:57:44.274Z,81.7180
2023-04-10T04:58:47.496Z,81.6943
2023-04-10T04:59:50.747Z,81.6971
2023-04-10T05:00:54.046Z,81.6363
2023-04-10T05:01:58.306Z,81.4460
2023-04-10T05:02:58.225Z,81.5536
2023-04-10T05:04:01.570Z,81.6978
2023-04-10T05:05:04.869Z,81.5966
2023-04-10T05:06:08.699Z,81.5706
2023-04-10T05:07:08.464Z,81.6096
2023-04-10T05:08:11.695Z,81.7177
2023-04-10T05:09:14.967Z,81.6893
2023-04-10T05:10:18.195Z,81.6844
2023-04-10T05:11:21.590Z,81.5285
2023-04-10T05:12:23.449Z,81.4137
2023-04-10T05:13:26.709Z,81.3412
2023-04-10T05:14:29.980Z,81.3601
2023-04-10T05:15:33.281Z,81.3125
2023-04-10T05:16:36.772Z,81.3408
2023-04-10T05:17:36.575Z,81.3903
2023-04-10T05:18:39.802Z,81.4341
2023-04-10T05:19:41.385Z,81.5780
2023-04-10T05:20:44.657Z,81.5026
2023-04-10T05:21:49.258Z,81.4030
2023-04-10T05:22:49.124Z,81.4994
2023-04-10T05:23:52.351Z,81.4611
2023-04-10T05:24:55.855Z,81.4530
2023-04-10T05:25:59.115Z,81.5039
2023-04-10T05:27:02.439Z,81.4902
2023-04-10T05:28:05.623Z,81.4542
2023-04-10T05:29:08.938Z,81.4800
2023-04-10T05:30:12.164Z,81.5125
2023-04-10T05:31:15.466Z,81.3711
2023-04-10T05:32:18.734Z,81.2422
2023-04-10T05:33:21.992Z,81.3385
2023-04-10T05:34:25.216Z,81.4826
2023-04-10T05:35:28.494Z,81.3453
2023-04-10T05:36:31.725Z,81.3486
2023-04-10T05:37:34.971Z,81.2425
2023-04-10T05:38:38.223Z,81.1727
2023-04-10T05:39:38.298Z,81.1679
2023-04-10T05:40:41.497Z,80.9824
2023-04-10T05:41:44.752Z,80.8699
2023-04-10T05:42:47.995Z,80.7552
2023-04-10T05:43:51.259Z,80.7029
2023-04-10T05:44:54.485Z,80.7694
2023-04-10T05:45:57.829Z,80.8014
2023-04-10T05:47:01.076Z,80.7499
2023-04-10T05:48:04.690Z,80.4403
2023-04-10T05:49:04.466Z,80.5354
2023-04-10T05:50:07.725Z,80.6898
2023-04-10T05:51:11.004Z,81.0352
2023-04-10T05:52:14.224Z,80.7535
2023-04-10T05:53:17.481Z,80.6464
2023-04-10T05:54:20.738Z,80.6670
2023-04-10T05:55:23.969Z,80.5383
2023-04-10T05:56:27.257Z,80.5349
2023-04-10T05:57:30.473Z,80.5904
2023-04-10T05:58:33.742Z,80.4342
2023-04-10T05:59:36.980Z,80.5213
2023-04-10T06:00:40.243Z,80.2231
2023-04-10T06:01:43.485Z,80.1749
2023-04-10T06:02:46.941Z,80.1365
2023-04-10T06:03:46.966Z,80.0344
2023-04-10T06:04:46.916Z,80.0305
2023-04-10T06:05:50.158Z,79.9354
2023-04-10T06:06:53.412Z,79.9302
2023-04-10T06:07:58.352Z,80.1684
2023-04-10T06:08:58.438Z,79.9979
2023-04-10T06:10:01.656Z,79.6493
2023-04-10T06:11:04.911Z,79.8445
2023-04-10T06:12:08.187Z,79.9228
2023-04-10T06:13:11.465Z,79.8608
2023-04-10T06:14:14.710Z,79.5095
2023-04-10T06:15:17.952Z,79.4249
2023-04-10T06:16:21.220Z,79.3410
2023-04-10T06:17:24.484Z,79.6336
2023-04-10T06:18:27.744Z,79.3556
2023-04-10T06:19:31.002Z,78.9086
2023-04-10T06:20:34.272Z,78.4623
2023-04-10T06:21:37.540Z,77.7855
2023-04-10T06:22:40.839Z,77.1293
2023-04-10T06:23:44.067Z,76.8273
2023-04-10T06:24:47.306Z,76.3092
2023-04-10T06:25:50.562Z,76.5520
2023-04-10T06:26:53.797Z,77.7396
2023-04-10T06:27:57.061Z,77.1029
2023-04-10T06:29:00.352Z,76.9549
2023-04-10T06:30:03.667Z,77.0683
2023-04-10T06:31:06.882Z,76.8250
2023-04-10T06:32:10.123Z,77.1956
2023-04-10T06:33:13.381Z,76.8789
2023-04-10T06:34:16.639Z,76.0882
2023-04-10T06:35:19.875Z,75.7538
2023-04-10T06:36:23.173Z,75.5766
2023-04-10T06:37:26.515Z,76.0167
2023-04-10T06:38:29.840Z,76.1223
2023-04-10T06:39:33.087Z,75.1655
2023-04-10T06:40:36.417Z,72.8841
2023-04-10T06:41:39.624Z,73.0439
2023-04-10T06:42:42.858Z,73.9804
2023-04-10T06:43:46.132Z,73.6337
2023-04-10T06:44:49.423Z,72.0629
2023-04-10T06:45:52.762Z,72.7270
2023-04-10T06:46:55.998Z,72.1811
2023-04-10T06:47:59.427Z,71.5715
2023-04-10T06:49:03.373Z,69.9632
2023-04-10T06:50:03.185Z,69.7231
2023-04-10T06:51:06.480Z,69.2779
2023-04-10T06:52:09.756Z,70.5425
2023-04-10T06:53:13.000Z,70.3996
2023-04-10T06:54:16.285Z,69.6710
2023-04-10T06:55:19.557Z,67.9232
2023-04-10T06:56:22.990Z,69.7443
2023-04-10T06:57:26.248Z,67.8771
2023-04-10T06:58:29.477Z,67.3980
2023-04-10T06:59:32.766Z,68.1887
2023-04-10T07:00:36.002Z,68.4211
2023-04-10T07:01:39.287Z,68.0390
2023-04-10T07:02:42.624Z,66.9644
2023-04-10T07:03:46.007Z,65.7631
2023-04-10T07:04:50.411Z,64.8806
2023-04-10T07:05:50.281Z,65.8138
2023-04-10T07:06:53.543Z,66.5361
2023-04-10T07:07:56.798Z,63.3784
2023-04-10T07:09:00.078Z,61.7329
2023-04-10T07:10:03.336Z,66.9142
2023-04-10T07:11:07.025Z,68.6489
2023-04-10T07:12:07.076Z,66.3585
2023-04-10T07:13:07.873Z,66.4570
2023-04-10T07:14:08.076Z,68.6579
2023-04-10T07:15:08.360Z,67.2666
2023-04-10T07:16:08.182Z,67.7912
2023-04-10T07:17:11.418Z,66.0133
2023-04-10T07:18:11.714Z,66.0010
2023-04-10T07:19:14.961Z,64.1103
2023-04-10T07:20:18.466Z,63.1009
2023-04-10T07:21:21.704Z,61.8787
2023-04-10T07:22:24.992Z,58.7224
2023-04-10T07:23:28.494Z,59.3595
2023-04-10T07:24:28.294Z,58.5937
2023-04-10T07:25:28.402Z,61.8828
2023-04-10T07:26:31.687Z,60.7923
2023-04-10T07:27:34.991Z,61.1058
2023-04-10T07:28:38.293Z,60.1428
2023-04-10T07:29:41.809Z,59.7340
2023-04-10T07:30:41.651Z,61.0605
2023-04-10T07:31:45.002Z,59.7633
2023-04-10T07:32:45.354Z,59.6404
2023-04-10T07:33:45.230Z,60.6570
2023-04-10T07:34:48.500Z,60.4974
2023-04-10T07:35:51.796Z,60.2981
2023-04-10T07:36:55.074Z,64.6155
2023-04-10T07:37:55.197Z,65.4696
2023-04-10T07:38:58.534Z,65.6914
2023-04-10T07:40:01.788Z,63.6973
2023-04-10T07:41:05.082Z,64.7878
2023-04-10T07:42:08.509Z,63.9000
2023-04-10T07:43:11.788Z,65.4071
2023-04-10T07:44:15.048Z,64.7399
2023-04-10T07:45:15.116Z,65.6751
2023-04-10T07:46:18.904Z,62.5821
2023-04-10T07:47:18.741Z,62.6187
2023-04-10T07:48:22.037Z,61.0180
2023-04-10T07:49:25.366Z,59.8828
2023-04-10T07:50:28.638Z,64.4082
2023-04-10T07:51:31.970Z,63.7792
2023-04-10T07:52:35.247Z,62.6568
2023-04-10T07:53:35.290Z,60.4274
2023-04-10T07:54:38.609Z,60.9459
2023-04-10T07:55:39.560Z,63.6386
2023-04-10T07:56:39.507Z,62.5128
2023-04-10T07:57:43.049Z,63.4702
2023-04-10T07:58:42.866Z,62.4517
2023-04-10T07:59:46.146Z,61.4431
2023-04-10T08:00:46.771Z,60.0277
2023-04-10T08:01:50.133Z,63.6364
2023-04-10T08:02:50.342Z,62.6517
2023-04-10T08:03:50.415Z,59.7552
2023-04-10T08:04:50.492Z,58.1442
2023-04-10T08:05:50.428Z,59.0663
2023-04-10T08:06:53.697Z,58.1009
2023-04-10T08:07:57.125Z,53.9426
2023-04-10T08:09:00.447Z,57.7960
2023-04-10T08:10:03.798Z,58.9075
2023-04-10T08:11:07.052Z,58.2149
2023-04-10T08:12:10.389Z,56.6684
2023-04-10T08:13:10.408Z,60.7752
2023-04-10T08:14:13.765Z,62.4303
2023-04-10T08:15:14.760Z,62.4396
2023-04-10T08:16:18.120Z,62.7969
2023-04-10T08:17:21.495Z,60.7876
2023-04-10T08:18:22.312Z,59.0624
2023-04-10T08:19:25.666Z,58.2448
2023-04-10T08:20:28.998Z,56.6642
2023-04-10T08:21:32.420Z,57.0787
2023-04-10T08:22:35.684Z,56.0416
2023-04-10T08:23:38.979Z,55.0170
2023-04-10T08:24:42.299Z,51.3554
2023-04-10T08:25:45.593Z,52.6160
2023-04-10T08:26:49.562Z,55.4474
2023-04-10T08:27:49.456Z,54.9257
2023-04-10T08:28:53.047Z,55.9760
2023-04-10T08:29:53.118Z,57.1911
2023-04-10T08:30:56.498Z,55.6469
2023-04-10T08:31:59.804Z,54.9854
2023-04-10T08:33:03.203Z,55.4885
2023-04-10T08:34:06.533Z,54.7911
2023-04-10T08:35:09.934Z,54.7852
2023-04-10T08:36:10.044Z,53.9558
2023-04-10T08:37:13.360Z,55.5995
2023-04-10T08:38:16.759Z,56.6094
2023-04-10T08:39:20.059Z,53.3260
2023-04-10T08:40:23.409Z,55.4666
2023-04-10T08:41:23.639Z,55.5665
2023-04-10T08:43:29.482Z,55.6733
2023-04-10T08:44:32.771Z,54.0294
2023-04-10T08:45:36.262Z,51.2260
2023-04-10T08:46:39.794Z,52.1836
2023-04-10T08:47:39.749Z,50.6985
2023-04-10T08:48:43.029Z,51.0078
2023-04-10T08:49:46.387Z,53.1794
2023-04-10T08:50:49.717Z,55.5363
2023-04-10T08:51:53.240Z,56.3526
2023-04-10T08:52:56.570Z,55.5734
2023-04-10T08:53:59.929Z,51.7547
2023-04-10T08:55:03.217Z,48.7498
2023-04-10T08:56:06.569Z,52.8707
2023-04-10T08:57:11.054Z,54.8877
2023-04-10T08:58:10.992Z,56.0477
2023-04-10T08:59:14.299Z,53.8097
2023-04-10T09:01:19.823Z,53.2447
2023-04-10T09:02:23.152Z,51.8717
2023-04-10T09:03:26.605Z,55.8771
2023-04-10T09:04:26.584Z,54.6395
2023-04-10T09:05:29.943Z,54.6576
2023-04-10T09:06:33.300Z,53.1543
2023-04-10T09:07:36.607Z,52.8368
2023-04-10T09:08:39.961Z,51.0806
2023-04-10T09:09:43.264Z,49.6961
2023-04-10T09:10:46.582Z,48.5345
2023-04-10T09:11:49.994Z,49.9319
2023-04-10T09:12:53.274Z,50.0042
2023-04-10T09:13:56.725Z,51.5573
2023-04-10T09:14:56.635Z,49.7142
2023-04-10T09:15:56.722Z,48.0918
2023-04-10T09:17:00.055Z,48.7263
2023-04-10T09:18:03.489Z,49.4774
2023-04-10T09:19:05.721Z,48.5874
2023-04-10T09:20:03.563Z,48.6102
2023-04-10T09:21:06.878Z,47.4853
2023-04-10T09:22:10.233Z,49.7292
2023-04-10T09:23:13.535Z,51.9200
2023-04-10T09:24:13.633Z,53.4993
2023-04-10T09:25:16.990Z,51.8951
2023-04-10T09:26:17.107Z,50.2454
2023-04-10T09:27:20.505Z,50.4920
2023-04-10T09:28:23.792Z,50.1785
2023-04-10T09:29:27.096Z,48.4064
2023-04-10T09:30:30.404Z,48.9102
2023-04-10T09:31:33.726Z,47.1717
2023-04-10T09:32:37.061Z,47.2296
2023-04-10T09:33:40.362Z,48.1853
2023-04-10T09:34:43.690Z,47.8058
2023-04-10T09:35:47.002Z,49.3436
2023-04-10T09:36:50.366Z,49.8044
2023-04-10T09:37:53.705Z,47.2941
2023-04-10T09:38:57.044Z,45.8657
2023-04-10T09:40:00.418Z,44.2670
2023-04-10T09:41:03.725Z,42.8383
2023-04-10T09:42:07.044Z,44.8579
2023-04-10T09:43:10.337Z,45.4770
2023-04-10T09:44:13.700Z,42.5355
2023-04-10T09:45:17.014Z,44.1137
2023-04-10T09:46:20.392Z,44.9980
2023-04-10T09:47:23.758Z,47.1624
2023-04-10T09:48:27.140Z,48.2290
2023-04-10T09:49:30.516Z,46.2877
2023-04-10T09:50:36.314Z,47.4801
2023-04-10T09:51:34.291Z,45.8593
2023-04-10T09:52:37.565Z,45.4790
2023-04-10T09:53:37.664Z,47.3321
2023-04-10T09:54:40.967Z,45.3429
2023-04-10T09:55:44.278Z,45.7255
2023-04-10T09:56:47.589Z,47.0044
2023-04-10T09:57:50.943Z,47.5494
2023-04-10T09:58:54.414Z,46.7981
2023-04-10T09:59:54.332Z,46.5227
2023-04-10T10:00:57.687Z,46.6232
2023-04-10T10:02:01.099Z,46.2961
2023-04-10T10:03:04.698Z,47.7356
2023-04-10T10:04:04.869Z,46.2926
2023-04-10T10:05:08.268Z,46.0121
2023-04-10T10:06:08.530Z,45.3695
2023-04-10T10:07:11.871Z,47.7759
2023-04-10T10:08:15.176Z,47.2414
2023-04-10T10:09:19.498Z,47.3077
2023-04-10T10:10:19.353Z,45.7413
2023-04-10T10:11:22.624Z,46.3358
2023-04-10T10:12:25.932Z,46.7798
2023-04-10T10:13:29.462Z,48.2344
2023-04-10T10:14:32.809Z,45.4164
2023-04-10T10:15:36.126Z,46.4038
2023-04-10T10:16:39.496Z,44.6125
2023-04-10T10:17:42.778Z,44.0164
2023-04-10T10:18:46.059Z,44.4403
2023-04-10T10:19:49.377Z,44.8804
2023-04-10T10:20:52.656Z,44.1031
2023-04-10T10:21:52.672Z,46.8868
2023-04-10T10:22:55.965Z,46.3619
2023-04-10T10:23:56.016Z,45.3010
2023-04-10T10:24:59.301Z,47.1629
2023-04-10T10:26:03.971Z,46.8378
2023-04-10T10:27:03.795Z,46.5939
2023-04-10T10:28:07.091Z,47.0278
2023-04-10T10:29:10.370Z,45.7030
2023-04-10T10:30:28.321Z,46.1308
2023-04-10T10:31:15.948Z,47.2556
2023-04-10T10:32:19.316Z,45.3207
2023-04-10T10:33:22.610Z,45.8063
2023-04-10T10:34:25.929Z,45.0395
2023-04-10T10:35:30.108Z,44.1229
2023-04-10T10:36:30.035Z,43.9226
2023-04-10T10:37:33.307Z,46.6704
2023-04-10T10:38:36.905Z,44.0341
2023-04-10T10:39:40.190Z,44.2127
2023-04-10T10:40:43.529Z,47.3843
2023-04-10T10:41:43.570Z,45.1987
2023-04-10T10:42:46.916Z,44.5777
2023-04-10T10:43:50.160Z,43.6796
2023-04-10T10:44:53.472Z,42.5822
2023-04-10T10:45:56.809Z,43.6135
2023-04-10T10:47:00.138Z,43.4435
2023-04-10T10:48:03.539Z,44.1549
2023-04-10T10:49:03.534Z,41.1941
2023-04-10T10:50:06.822Z,42.0741
2023-04-10T10:51:10.153Z,42.8754
2023-04-10T10:52:13.534Z,43.3339
2023-04-10T10:53:16.845Z,41.5765
2023-04-10T10:54:20.157Z,41.1692
2023-04-10T10:55:23.490Z,42.1058
2023-04-10T10:56:26.823Z,41.6335
2023-04-10T10:57:30.127Z,41.9885
2023-04-10T10:58:33.470Z,41.3096
2023-04-10T10:59:36.790Z,39.0416
2023-04-10T11:00:40.073Z,39.6228
2023-04-10T11:01:43.530Z,42.3885
2023-04-10T11:02:43.481Z,44.6653
2023-04-10T11:03:43.473Z,46.2248
2023-04-10T11:04:46.905Z,45.9757
2023-04-10T11:05:50.241Z,45.5200
2023-04-10T11:06:53.577Z,45.4415
2023-04-10T11:07:56.900Z,45.1996
2023-04-10T11:08:57.311Z,44.7910
2023-04-10T11:09:57.313Z,43.0181
2023-04-10T11:11:00.588Z,42.4028
2023-04-10T11:12:04.138Z,43.5438
2023-04-10T11:13:03.924Z,43.3381
2023-04-10T11:14:07.261Z,42.5193
2023-04-10T11:15:10.570Z,41.8515
2023-04-10T11:16:13.936Z,42.4829
2023-04-10T11:17:17.259Z,41.1712
2023-04-10T11:18:20.548Z,40.8679
2023-04-10T11:19:24.295Z,40.1310
2023-04-10T11:20:24.297Z,39.4894
2023-04-10T11:21:27.609Z,39.8295
2023-04-10T11:22:30.960Z,40.2892
2023-04-10T11:23:34.254Z,40.1131
2023-04-10T11:24:37.574Z,39.8569
2023-04-10T11:25:40.877Z,42.1188
2023-04-10T11:26:44.379Z,41.9388
2023-04-10T11:27:47.774Z,42.1133
2023-04-10T11:28:51.289Z,41.2065
2023-04-10T11:29:54.579Z,39.7361
2023-04-10T11:30:57.884Z,38.6859
2023-04-10T11:32:01.270Z,39.5616
2023-04-10T11:33:01.297Z,40.0547
2023-04-10T11:34:02.202Z,37.8780
2023-04-10T11:35:05.725Z,40.1647
2023-04-10T11:36:05.569Z,39.3115
2023-04-10T11:37:05.601Z,38.9073
2023-04-10T11:38:08.941Z,41.4722
2023-04-10T11:39:12.348Z,42.1643
2023-04-10T11:40:15.662Z,41.3212
2023-04-10T11:41:19.092Z,45.9409
2023-04-10T11:42:22.369Z,43.8371
2023-04-10T11:43:25.677Z,44.3905
2023-04-10T11:44:29.151Z,41.6694
2023-04-10T11:45:32.444Z,38.4231
2023-04-10T11:46:35.725Z,39.6778
2023-04-10T11:47:39.112Z,39.0328
2023-04-10T11:48:42.405Z,37.4717
2023-04-10T11:49:45.742Z,38.0760
2023-04-10T11:50:49.019Z,40.2168
2023-04-10T11:51:52.334Z,38.9287
2023-04-10T11:52:56.576Z,36.4694
2023-04-10T11:53:56.503Z,38.1616
2023-04-10T11:54:59.806Z,37.5698
2023-04-10T11:56:03.119Z,38.2230
2023-04-10T11:57:06.411Z,38.6702
2023-04-10T11:58:09.714Z,39.1972
2023-04-10T11:59:13.042Z,37.8520
2023-04-10T12:00:16.360Z,39.4113
2023-04-10T12:01:19.750Z,36.0032
2023-04-10T12:02:23.118Z,39.6050
2023-04-10T12:03:26.621Z,39.4642
2023-04-10T12:04:26.708Z,43.0649
2023-04-10T12:05:26.603Z,41.2766
2023-04-10T12:06:29.873Z,39.1946
2023-04-10T12:07:33.219Z,35.9345
2023-04-10T12:08:36.478Z,37.2314
2023-04-10T12:09:38.039Z,40.2797
2023-04-10T12:10:41.308Z,37.7200
2023-04-10T12:11:41.371Z,38.3002
2023-04-10T12:12:44.652Z,37.6651
2023-04-10T12:13:47.950Z,38.8319
2023-04-10T12:14:47.975Z,38.0669
2023-04-10T12:15:51.296Z,38.4872
2023-04-10T12:16:51.319Z,35.8890
2023-04-10T12:17:54.660Z,37.2867
2023-04-10T12:18:58.200Z,39.8770
2023-04-10T12:19:58.091Z,39.9068
2023-04-10T12:21:01.456Z,38.0939
2023-04-10T12:22:01.597Z,39.2487
2023-04-10T12:23:04.865Z,38.4891
2023-04-10T12:24:08.224Z,36.5074
2023-04-10T12:25:11.520Z,35.3161
2023-04-10T12:26:14.849Z,38.3906
2023-04-10T12:27:14.836Z,38.4593
2023-04-10T12:28:18.140Z,37.8551
2023-04-10T12:29:21.500Z,36.7527
2023-04-10T12:30:25.614Z,36.4739
2023-04-10T12:31:25.439Z,36.5730
2023-04-10T12:32:28.734Z,35.4467
2023-04-10T12:33:32.032Z,35.1833
2023-04-10T12:34:35.356Z,39.5140
2023-04-10T12:35:38.688Z,39.4520
2023-04-10T12:36:42.060Z,36.7374
2023-04-10T12:37:45.404Z,35.7593
2023-04-10T12:38:48.709Z,38.0006
2023-04-10T12:39:48.737Z,37.9828
2023-04-10T12:40:52.073Z,38.1930